メインページ
METAR-TAF:

METAR-TAF

空港 :

Ciudad Obregón, メキシコ

緯度: 27-24N, 経度: 109-50W, 海抜: 62m

現時点の気象観測

当レポートは3時間42分前の01:42(UTC)に作成
西/南西の風 11kt
気温 32°C
湿度 20%
気圧 1008 hPa
視程: 16.1km
晴天

METAR: MMCN 200142Z 25011KT 10SM SKC 32/06 A2976

時間: 22:24 (05:24 UTC)

予報

当レポートは13時間3分前の16:21(UTC)に作成
予報は19日の 18時(UTC)から 20日の 18時(UTC)まで有効
西/南西の風 10kt
視程: 10km
晴天
20日の 0300時(UTC)から
の風 5kt
視程: 10km
高度8000ftの雲は散在している
20日の 1700時(UTC)から
西の風 10kt
視程: 10km
晴天

TAF: MMCN 191621Z 1918/2018 24010KT P6SM SKC FM200300 08005KT P6SM SCT080 FM201700 26010KT P6SM SKC

4,000以上の空港の気象観測と天気予報(METAR報とTAF報)

利用可能な観測所は地図上に黄色い丸と赤い丸で示す。

丸の上にカーソルを重ねると観測所名を参照できる。

次にクリックすると気象観測と天気予報を参照できる。

マップの切り替え:黒色「×」印の緑ボタンをクリックして拡大、「-」印の緑ボタンをクリックして縮小、緑色の三角印をクリックして隣りの地図に切り替え


METAR-TAF: